createdAt,value
2018-12-23T00:00:52.440Z,5.72
2018-12-23T00:01:52.453Z,5.71
2018-12-23T00:02:52.474Z,5.75
2018-12-23T00:03:52.480Z,5.75
2018-12-23T00:04:52.503Z,5.67
2018-12-23T00:05:52.535Z,5.81
2018-12-23T00:06:52.530Z,5.85
2018-12-23T00:07:52.615Z,5.79
2018-12-23T00:09:07.328Z,5.76
2018-12-23T00:09:52.573Z,5.85
2018-12-23T00:11:07.252Z,5.85
2018-12-23T00:11:52.604Z,5.78
2018-12-23T00:13:07.284Z,5.82
2018-12-23T00:13:52.637Z,5.82
2018-12-23T00:14:52.649Z,5.83
2018-12-23T00:15:52.667Z,5.85
2018-12-23T00:16:52.687Z,5.82
2018-12-23T00:17:52.698Z,5.85
2018-12-23T00:18:52.713Z,5.9
2018-12-23T00:19:52.727Z,5.94
2018-12-23T00:20:52.791Z,5.94
2018-12-23T00:21:52.758Z,5.97
2018-12-23T00:22:52.773Z,5.99
2018-12-23T00:23:52.790Z,5.94
2018-12-23T00:25:07.470Z,6
2018-12-23T00:25:52.820Z,6
2018-12-23T00:26:53.459Z,6.03
2018-12-23T00:27:52.851Z,6.01
2018-12-23T00:28:52.865Z,5.96
2018-12-23T00:29:52.882Z,5.97
2018-12-23T00:30:52.899Z,6.01
2018-12-23T00:31:52.911Z,6.11
2018-12-23T00:32:52.930Z,6.03
2018-12-23T00:33:52.942Z,6.03
2018-12-23T00:35:52.974Z,6
2018-12-23T00:38:53.121Z,5.99
2018-12-23T00:39:53.034Z,6.06
2018-12-23T00:40:53.055Z,5.97
2018-12-23T00:41:53.069Z,6
2018-12-23T00:42:53.081Z,5.96
2018-12-23T00:43:53.097Z,6.08
2018-12-23T00:45:07.777Z,6.06
2018-12-23T00:45:53.129Z,6.01
2018-12-23T00:46:53.145Z,6.08
2018-12-23T00:47:53.162Z,6.04
2018-12-23T00:48:53.176Z,6.01
2018-12-23T00:49:53.189Z,5.99
2018-12-23T00:51:53.225Z,5.93
2018-12-23T00:52:53.234Z,5.82
2018-12-23T00:53:53.254Z,5.83
2018-12-23T00:54:53.269Z,5.82
2018-12-23T00:55:53.290Z,5.79
2018-12-23T00:57:07.961Z,5.75
2018-12-23T00:57:53.314Z,5.78
2018-12-23T00:58:53.329Z,5.85
2018-12-23T00:59:53.343Z,5.79
2018-12-23T01:01:08.026Z,5.83
2018-12-23T01:01:53.375Z,5.99
2018-12-23T01:02:53.491Z,6.03
2018-12-23T01:03:53.410Z,5.99
2018-12-23T01:04:53.419Z,5.99
2018-12-23T01:05:53.436Z,6
2018-12-23T01:06:53.449Z,6
2018-12-23T01:07:53.468Z,6.03
2018-12-23T01:08:53.481Z,6.01
2018-12-23T01:09:53.496Z,5.94
2018-12-23T01:11:08.178Z,5.94
2018-12-23T01:11:53.528Z,6
2018-12-23T01:12:53.662Z,5.99
2018-12-23T01:14:08.221Z,6.06
2018-12-23T01:14:53.580Z,6
2018-12-23T01:15:53.589Z,6.01
2018-12-23T01:17:08.269Z,6.06
2018-12-23T01:17:53.619Z,6.08
2018-12-23T01:18:53.634Z,5.99
2018-12-23T01:19:53.652Z,6.01
2018-12-23T01:20:53.665Z,6.06
2018-12-23T01:21:53.680Z,6.03
2018-12-23T01:22:53.808Z,5.94
2018-12-23T01:23:53.712Z,6.03
2018-12-23T01:24:53.725Z,5.96
2018-12-23T01:25:53.743Z,5.96
2018-12-23T01:26:53.770Z,6.08
2018-12-23T01:27:53.779Z,6.03
2018-12-23T01:28:53.790Z,6.09
2018-12-23T01:30:08.471Z,6.09
2018-12-23T01:30:53.819Z,6.11
2018-12-23T01:31:53.933Z,6.01
2018-12-23T01:33:08.515Z,6.04
2018-12-23T01:33:53.871Z,6.01
2018-12-23T01:34:53.883Z,6.01
2018-12-23T01:35:53.900Z,6.08
2018-12-23T01:36:53.911Z,6.17
2018-12-23T01:37:53.926Z,6.08
2018-12-23T01:38:53.941Z,6.08
2018-12-23T01:39:53.957Z,6.06
2018-12-23T01:40:53.973Z,5.99
2018-12-23T01:41:53.989Z,5.99
2018-12-23T01:42:54.009Z,5.83
2018-12-23T01:43:54.086Z,5.94
2018-12-23T01:44:54.037Z,5.89
2018-12-23T01:46:08.714Z,5.91
2018-12-23T01:46:54.067Z,5.82
2018-12-23T01:48:08.746Z,5.85
2018-12-23T01:48:54.102Z,5.86
2018-12-23T01:49:54.117Z,5.93
2018-12-23T01:50:54.133Z,5.89
2018-12-23T01:51:54.143Z,5.82
2018-12-23T01:52:54.158Z,5.71
2018-12-23T01:53:54.175Z,5.75
2018-12-23T01:54:54.191Z,5.72
2018-12-23T01:55:54.204Z,5.81
2018-12-23T01:56:54.227Z,5.76
2018-12-23T01:58:54.249Z,5.83
2018-12-23T01:59:54.267Z,5.89
2018-12-23T02:00:54.281Z,5.82
2018-12-23T02:01:54.301Z,5.89
2018-12-23T02:02:54.314Z,5.89
2018-12-23T02:03:54.326Z,5.85
2018-12-23T02:04:54.195Z,5.9
2018-12-23T02:05:54.362Z,5.99
2018-12-23T02:06:54.378Z,5.94
2018-12-23T02:07:54.387Z,6
2018-12-23T02:08:54.403Z,6.04
2018-12-23T02:09:54.506Z,6.03
2018-12-23T02:11:54.447Z,6.17
2018-12-23T02:12:54.466Z,6.11
2018-12-23T02:13:54.485Z,6.04
2018-12-23T02:14:54.493Z,6.06
2018-12-23T02:15:54.531Z,6.14
2018-12-23T02:16:54.526Z,6.06
2018-12-23T02:17:54.539Z,6.09
2018-12-23T02:18:54.555Z,6.09
2018-12-23T02:20:09.238Z,6.18
2018-12-23T02:20:54.587Z,6.04
2018-12-23T02:21:54.602Z,6.14
2018-12-23T02:22:54.616Z,6.17
2018-12-23T02:23:54.637Z,6.11
2018-12-23T02:24:54.649Z,6.17
2018-12-23T02:25:54.662Z,6.08
2018-12-23T02:26:54.679Z,6.08
2018-12-23T02:29:09.374Z,6.17
2018-12-23T02:29:54.723Z,6.18
2018-12-23T02:30:54.738Z,6.19
2018-12-23T02:31:54.761Z,6.15
2018-12-23T02:32:54.775Z,6.14
2018-12-23T02:33:54.784Z,6.27
2018-12-23T02:34:54.809Z,6.21
2018-12-23T02:36:09.494Z,6.17
2018-12-23T02:36:54.853Z,6.14
2018-12-23T02:37:54.859Z,6.27
2018-12-23T02:38:54.860Z,6.25
2018-12-23T02:39:54.888Z,6.21
2018-12-23T02:40:54.908Z,6.31
2018-12-23T02:41:54.914Z,6.17
2018-12-23T02:43:09.599Z,6.19
2018-12-23T02:44:54.956Z,6.15
2018-12-23T02:45:54.979Z,6.18
2018-12-23T02:46:54.993Z,6.17
2018-12-23T02:47:55.010Z,6.21
2018-12-23T02:48:55.018Z,6.17
2018-12-23T02:49:55.028Z,6.22
2018-12-23T02:50:55.051Z,6.17
2018-12-23T02:52:09.724Z,6.21
2018-12-23T02:52:55.081Z,6.22
2018-12-23T02:53:55.094Z,6.31
2018-12-23T02:54:55.106Z,6.19
2018-12-23T02:55:55.122Z,6.21
2018-12-23T02:56:55.138Z,6.28
2018-12-23T02:57:55.151Z,6.21
2018-12-23T02:58:55.166Z,6.3
2018-12-23T02:59:55.182Z,6.27
2018-12-23T03:00:55.202Z,6.31
2018-12-23T03:02:09.878Z,6.22
2018-12-23T03:02:55.228Z,6.21
2018-12-23T03:03:55.244Z,6.25
2018-12-23T03:05:09.922Z,6.34
2018-12-23T03:06:05.374Z,6.34
2018-12-23T03:06:55.300Z,6.28
2018-12-23T03:08:09.970Z,6.27
2018-12-23T03:08:55.331Z,6.31
2018-12-23T03:09:55.335Z,6.28
2018-12-23T03:10:55.357Z,6.19
2018-12-23T03:11:55.368Z,6.17
2018-12-23T03:12:55.383Z,6.17
2018-12-23T03:14:10.068Z,6.25
2018-12-23T03:14:55.412Z,6.27
2018-12-23T03:15:55.431Z,6.38
2018-12-23T03:16:55.445Z,6.34
2018-12-23T03:18:55.478Z,6.38
2018-12-23T03:19:55.603Z,6.28
2018-12-23T03:20:55.516Z,6.36
2018-12-23T03:21:55.536Z,6.28
2018-12-23T03:23:10.202Z,6.41
2018-12-23T03:23:55.553Z,6.41
2018-12-23T03:24:55.567Z,6.4
2018-12-23T03:25:55.582Z,6.41
2018-12-23T03:26:55.598Z,6.4
2018-12-23T03:28:55.633Z,6.36
2018-12-23T03:30:55.680Z,6.37
2018-12-23T03:31:55.696Z,6.37
2018-12-23T03:32:55.734Z,6.41
2018-12-23T03:33:55.710Z,6.41
2018-12-23T03:34:55.723Z,6.3
2018-12-23T03:35:55.743Z,6.37
2018-12-23T03:36:55.754Z,6.4
2018-12-23T03:37:55.771Z,6.46
2018-12-23T03:38:55.783Z,6.52
2018-12-23T03:39:55.801Z,6.52
2018-12-23T03:41:10.616Z,6.46
2018-12-23T03:41:55.833Z,6.44
2018-12-23T03:42:55.847Z,6.54
2018-12-23T03:43:55.862Z,6.51
2018-12-23T03:44:55.877Z,6.52
2018-12-23T03:45:55.891Z,6.58
2018-12-23T03:46:55.904Z,6.51
2018-12-23T03:49:10.605Z,6.52
2018-12-23T03:49:55.963Z,6.49
2018-12-23T03:50:55.973Z,6.49
2018-12-23T03:51:55.991Z,6.59
2018-12-23T03:52:56.101Z,6.56
2018-12-23T03:53:56.021Z,6.58
2018-12-23T03:55:10.694Z,6.61
2018-12-23T03:55:56.051Z,6.64
2018-12-23T03:56:56.179Z,6.59
2018-12-23T03:57:56.077Z,6.66
2018-12-23T03:58:56.094Z,6.58
2018-12-23T03:59:56.120Z,6.64
2018-12-23T04:00:56.134Z,6.55
2018-12-23T04:01:56.143Z,6.56
2018-12-23T04:02:56.162Z,6.59
2018-12-23T04:03:56.175Z,6.59
2018-12-23T04:04:56.189Z,6.62
2018-12-23T04:05:56.211Z,6.64
2018-12-23T04:07:10.880Z,6.55
2018-12-23T04:07:56.235Z,6.62
2018-12-23T04:08:56.257Z,6.55
2018-12-23T04:09:56.415Z,6.61
2018-12-23T04:11:11.062Z,6.66
2018-12-23T04:11:56.301Z,6.56
2018-12-23T04:12:56.311Z,6.62
2018-12-23T04:13:56.330Z,6.52
2018-12-23T04:14:56.341Z,6.62
2018-12-23T04:15:56.355Z,6.56
2018-12-23T04:17:56.389Z,6.67
2018-12-23T04:19:56.420Z,6.62
2018-12-23T04:21:56.459Z,6.59
2018-12-23T04:22:56.466Z,6.66
2018-12-23T04:23:56.488Z,6.56
2018-12-23T04:24:56.518Z,6.52
2018-12-23T04:25:56.515Z,6.61
2018-12-23T04:27:11.188Z,6.62
2018-12-23T04:27:56.551Z,6.61
2018-12-23T04:28:56.555Z,6.67
2018-12-23T04:29:56.581Z,6.58
2018-12-23T04:30:56.597Z,6.56
2018-12-23T04:32:56.621Z,6.58
2018-12-23T04:33:56.652Z,6.73
2018-12-23T04:34:56.661Z,6.71
2018-12-23T04:35:56.670Z,6.76
2018-12-23T04:36:56.793Z,6.7
2018-12-23T04:38:11.363Z,6.73
2018-12-23T04:38:56.718Z,6.67
2018-12-23T04:40:11.400Z,6.62
2018-12-23T04:40:56.751Z,6.67
2018-12-23T04:41:56.764Z,6.59
2018-12-23T04:43:11.437Z,6.66
2018-12-23T04:43:56.791Z,6.73
2018-12-23T04:44:56.813Z,6.71
2018-12-23T04:45:56.839Z,6.69
2018-12-23T04:46:56.837Z,6.71
2018-12-23T04:47:56.614Z,6.71
2018-12-23T04:48:56.867Z,6.74
2018-12-23T04:49:56.885Z,6.74
2018-12-23T04:50:56.903Z,6.73
2018-12-23T04:52:11.583Z,6.76
2018-12-23T04:52:56.937Z,6.7
2018-12-23T04:53:56.982Z,6.71
2018-12-23T04:54:56.966Z,6.69
2018-12-23T04:56:11.642Z,6.74
2018-12-23T04:56:56.996Z,6.77
2018-12-23T04:58:11.676Z,6.76
2018-12-23T04:58:57.026Z,6.73
2018-12-23T05:00:11.717Z,6.73
2018-12-23T05:00:57.065Z,6.76
2018-12-23T05:01:57.082Z,6.73
2018-12-23T05:02:57.093Z,6.73
2018-12-23T05:03:57.104Z,6.73
2018-12-23T05:04:57.164Z,6.71
2018-12-23T05:05:57.138Z,6.71
2018-12-23T05:07:57.169Z,6.73
2018-12-23T05:08:57.188Z,6.69
2018-12-23T05:10:11.862Z,6.66
2018-12-23T05:10:57.297Z,6.7
2018-12-23T05:11:57.230Z,6.74
2018-12-23T05:12:57.254Z,6.67
2018-12-23T05:13:57.260Z,6.73
2018-12-23T05:14:57.283Z,6.74
2018-12-23T05:15:57.294Z,6.7
2018-12-23T05:16:57.314Z,6.79
2018-12-23T05:17:57.323Z,6.74
2018-12-23T05:18:57.340Z,6.73
2018-12-23T05:20:57.372Z,6.71
2018-12-23T05:21:57.394Z,6.71
2018-12-23T05:22:57.404Z,6.73
2018-12-23T05:23:57.171Z,6.76
2018-12-23T05:24:57.434Z,6.76
2018-12-23T05:26:12.112Z,6.76
2018-12-23T05:26:57.467Z,6.76
2018-12-23T05:27:57.480Z,6.79
2018-12-23T05:28:57.501Z,6.76
2018-12-23T05:30:12.173Z,6.76
2018-12-23T05:30:57.524Z,6.8
2018-12-23T05:31:57.295Z,6.84
2018-12-23T05:32:57.563Z,6.79
2018-12-23T05:33:57.572Z,6.79
2018-12-23T05:34:57.588Z,6.84
2018-12-23T05:37:12.288Z,6.98
2018-12-23T05:37:57.637Z,6.91
2018-12-23T05:38:57.650Z,6.81
2018-12-23T05:39:57.669Z,6.92
2018-12-23T05:40:57.690Z,6.85
2018-12-23T05:41:57.704Z,6.79
2018-12-23T05:42:57.716Z,6.88
2018-12-23T05:44:12.393Z,6.84
2018-12-23T05:44:57.750Z,6.92
2018-12-23T05:46:12.427Z,6.97
2018-12-23T05:46:57.777Z,6.88
2018-12-23T05:47:57.792Z,6.88
2018-12-23T05:48:57.810Z,6.95
2018-12-23T05:49:57.821Z,6.85
2018-12-23T05:50:57.838Z,6.85
2018-12-23T05:51:57.853Z,6.95
2018-12-23T05:52:57.878Z,6.92
2018-12-23T05:53:57.885Z,6.87
2018-12-23T05:54:57.900Z,6.85
2018-12-23T05:55:57.921Z,6.92
2018-12-23T05:57:12.644Z,6.97
2018-12-23T05:58:12.722Z,6.98
2018-12-23T05:58:57.963Z,6.97
2018-12-23T05:59:58.031Z,6.97
2018-12-23T06:00:57.993Z,6.97
2018-12-23T06:02:12.672Z,6.94
2018-12-23T06:02:58.027Z,6.94
2018-12-23T06:03:58.044Z,6.98
2018-12-23T06:04:58.057Z,6.98
2018-12-23T06:05:58.075Z,6.94
2018-12-23T06:07:05.655Z,6.95
2018-12-23T06:07:58.106Z,6.97
2018-12-23T06:08:58.125Z,6.94
2018-12-23T06:09:58.152Z,7.02
2018-12-23T06:12:58.273Z,6.92
2018-12-23T06:13:58.203Z,6.98
2018-12-23T06:14:58.215Z,6.98
2018-12-23T06:15:58.236Z,6.99
2018-12-23T06:16:58.246Z,6.95
2018-12-23T06:18:12.932Z,6.98
2018-12-23T06:18:58.282Z,6.95
2018-12-23T06:19:58.294Z,6.99
2018-12-23T06:20:58.310Z,7.12
2018-12-23T06:21:58.326Z,7.05
2018-12-23T06:22:58.343Z,7.06
2018-12-23T06:23:58.109Z,7.06
2018-12-23T06:24:58.423Z,7.1
2018-12-23T06:27:58.418Z,7.13
2018-12-23T06:29:13.100Z,7.15
2018-12-23T06:29:58.454Z,7.13
2018-12-23T06:30:58.470Z,7.09
2018-12-23T06:31:58.586Z,7.1
2018-12-23T06:33:13.161Z,7.13
2018-12-23T06:33:58.516Z,7.13
2018-12-23T06:34:58.534Z,7.1
2018-12-23T06:35:58.547Z,7.12
2018-12-23T06:36:58.319Z,7.24
2018-12-23T06:37:58.576Z,7.28
2018-12-23T06:38:58.595Z,7.31
2018-12-23T06:39:58.607Z,7.21
2018-12-23T06:41:58.640Z,7.28
2018-12-23T06:42:58.662Z,7.27
2018-12-23T06:44:13.337Z,7.31
2018-12-23T06:44:58.687Z,7.34
2018-12-23T06:45:58.804Z,7.35
2018-12-23T06:46:58.722Z,7.28
2018-12-23T06:47:58.737Z,7.3
2018-12-23T06:48:58.756Z,7.35
2018-12-23T06:49:58.767Z,7.32
2018-12-23T06:50:58.536Z,7.31
2018-12-23T06:51:58.797Z,7.35
2018-12-23T06:52:58.822Z,7.37
2018-12-23T06:53:58.830Z,7.35
2018-12-23T06:54:58.861Z,7.31
2018-12-23T06:55:58.862Z,7.42
2018-12-23T06:56:58.877Z,7.34
2018-12-23T06:57:58.893Z,7.34
2018-12-23T06:58:58.913Z,7.39
2018-12-23T07:00:13.590Z,7.34
2018-12-23T07:00:58.948Z,7.37
2018-12-23T07:01:58.960Z,7.4
2018-12-23T07:02:58.972Z,7.35
2018-12-23T07:03:58.990Z,7.34
2018-12-23T07:05:13.671Z,7.42
2018-12-23T07:05:59.025Z,7.45
2018-12-23T07:06:59.040Z,7.43
2018-12-23T07:07:59.065Z,7.39
2018-12-23T07:08:59.068Z,7.46
2018-12-23T07:09:59.088Z,7.43
2018-12-23T07:10:59.105Z,7.42
2018-12-23T07:11:59.117Z,7.42
2018-12-23T07:12:59.133Z,7.49
2018-12-23T07:13:59.147Z,7.46
2018-12-23T07:14:59.659Z,7.4
2018-12-23T07:17:13.860Z,7.45
2018-12-23T07:17:59.214Z,7.45
2018-12-23T07:18:59.228Z,7.4
2018-12-23T07:19:59.244Z,7.48
2018-12-23T07:21:14.025Z,7.4
2018-12-23T07:21:59.277Z,7.52
2018-12-23T07:22:59.291Z,7.53
2018-12-23T07:23:59.313Z,7.49
2018-12-23T07:24:59.324Z,7.5
2018-12-23T07:25:59.345Z,7.45
2018-12-23T07:26:59.356Z,7.42
2018-12-23T07:27:59.370Z,7.43
2018-12-23T07:28:59.389Z,7.53
2018-12-23T07:29:59.403Z,7.52
2018-12-23T07:33:14.116Z,7.49
2018-12-23T07:33:59.473Z,7.55
2018-12-23T07:34:59.483Z,7.55
2018-12-23T07:35:59.503Z,7.48
2018-12-23T07:37:14.187Z,7.53
2018-12-23T07:37:59.532Z,7.53
2018-12-23T07:38:59.675Z,7.5
2018-12-23T07:39:59.566Z,7.63
2018-12-23T07:40:59.583Z,7.48
2018-12-23T07:41:59.601Z,7.5
2018-12-23T07:42:59.619Z,7.57
2018-12-23T07:43:59.628Z,7.53
2018-12-23T07:44:59.643Z,7.49
2018-12-23T07:45:59.664Z,7.55
2018-12-23T07:46:59.430Z,7.46
2018-12-23T07:48:59.712Z,7.52
2018-12-23T07:50:14.388Z,7.57
2018-12-23T07:50:59.742Z,7.5
2018-12-23T07:51:59.758Z,7.58
2018-12-23T07:53:14.550Z,7.63
2018-12-23T07:53:59.788Z,7.61
2018-12-23T07:54:59.805Z,7.6
2018-12-23T07:56:01.839Z,7.6
2018-12-23T07:56:59.840Z,7.63
2018-12-23T07:58:14.524Z,7.63
2018-12-23T07:58:59.871Z,7.61
2018-12-23T07:59:59.884Z,7.71
2018-12-23T08:00:59.900Z,7.69
2018-12-23T08:02:01.850Z,7.74
2018-12-23T08:02:59.936Z,7.69
2018-12-23T08:03:59.947Z,7.67
2018-12-23T08:04:59.965Z,7.68
2018-12-23T08:06:14.695Z,7.58
2018-12-23T08:07:00.000Z,7.79
2018-12-23T08:08:14.726Z,7.75
2018-12-23T08:09:00.042Z,7.67
2018-12-23T08:10:00.049Z,7.75
2018-12-23T08:11:00.062Z,7.8
2018-12-23T08:12:00.079Z,7.71
2018-12-23T08:13:00.097Z,7.67
2018-12-23T08:14:00.112Z,7.83
2018-12-23T08:15:00.158Z,7.89
2018-12-23T08:16:00.145Z,7.79
2018-12-23T08:17:00.160Z,7.85
2018-12-23T08:18:00.177Z,7.87
2018-12-23T08:19:00.192Z,7.87
2018-12-23T08:20:00.210Z,7.89
2018-12-23T08:21:00.228Z,7.79
2018-12-23T08:22:00.243Z,7.89
2018-12-23T08:23:00.277Z,7.9
2018-12-23T08:24:00.274Z,7.82
2018-12-23T08:25:02.033Z,7.87
2018-12-23T08:26:00.310Z,7.72
2018-12-23T08:27:00.323Z,7.69
2018-12-23T08:28:00.339Z,7.82
2018-12-23T08:29:15.026Z,7.85
2018-12-23T08:30:00.379Z,7.86
2018-12-23T08:32:00.405Z,7.9
2018-12-23T08:33:00.427Z,7.85
2018-12-23T08:34:15.103Z,7.8
2018-12-23T08:35:00.452Z,7.82
2018-12-23T08:36:00.470Z,7.86
2018-12-23T08:37:00.585Z,7.92
2018-12-23T08:38:00.499Z,7.97
2018-12-23T08:39:00.521Z,8
2018-12-23T08:40:15.207Z,7.93
2018-12-23T08:41:00.551Z,8
2018-12-23T08:42:00.570Z,7.87
2018-12-23T08:43:00.582Z,7.9
2018-12-23T08:44:00.603Z,7.98
2018-12-23T08:45:00.617Z,8.01
2018-12-23T08:46:00.631Z,8.05
2018-12-23T08:47:00.645Z,7.95
2018-12-23T08:48:00.662Z,8.01
2018-12-23T08:49:00.680Z,7.97
2018-12-23T08:50:00.697Z,8.01
2018-12-23T08:51:00.713Z,8.07
2018-12-23T08:52:00.744Z,8.01
2018-12-23T08:53:15.411Z,8
2018-12-23T08:54:00.770Z,7.95
2018-12-23T08:55:00.781Z,8.01
2018-12-23T08:56:15.457Z,7.98
2018-12-23T08:57:01.086Z,8.02
2018-12-23T08:58:00.832Z,8.08
2018-12-23T08:59:00.845Z,8.11
2018-12-23T09:00:00.866Z,8.01
2018-12-23T09:01:00.876Z,8.08
2018-12-23T09:02:00.893Z,8.04
2018-12-23T09:03:00.918Z,8.08
2018-12-23T09:04:00.938Z,8.07
2018-12-23T09:05:00.941Z,8.02
2018-12-23T09:07:00.976Z,8.12
2018-12-23T09:08:00.992Z,8.19
2018-12-23T09:09:15.670Z,8.08
2018-12-23T09:10:16.694Z,8.1
2018-12-23T09:11:01.040Z,8.15
2018-12-23T09:12:15.720Z,8.18
2018-12-23T09:13:01.073Z,8.26
2018-12-23T09:14:01.088Z,8.2
2018-12-23T09:15:01.109Z,8.23
2018-12-23T09:16:01.125Z,8.25
2018-12-23T09:17:01.137Z,8.29
2018-12-23T09:18:01.155Z,8.22
2018-12-23T09:19:01.171Z,8.23
2018-12-23T09:20:01.186Z,8.3
2018-12-23T09:21:01.202Z,8.36
2018-12-23T09:23:01.239Z,8.3
2018-12-23T09:24:01.259Z,8.33
2018-12-23T09:25:15.932Z,8.36
2018-12-23T09:26:01.294Z,8.37
2018-12-23T09:27:01.304Z,8.33
2018-12-23T09:28:15.984Z,8.38
2018-12-23T09:29:01.338Z,8.44
2018-12-23T09:30:01.354Z,8.43
2018-12-23T09:31:01.367Z,8.43
2018-12-23T09:32:01.390Z,8.41
2018-12-23T09:33:16.072Z,8.4
2018-12-23T09:34:01.417Z,8.33
2018-12-23T09:35:01.436Z,8.4
2018-12-23T09:36:01.455Z,8.43
2018-12-23T09:37:01.473Z,8.34
2018-12-23T09:38:06.343Z,8.48
2018-12-23T09:39:01.502Z,8.47
2018-12-23T09:40:01.518Z,8.45
2018-12-23T09:41:01.534Z,8.37
2018-12-23T09:42:01.554Z,8.48
2018-12-23T09:43:17.362Z,8.55
2018-12-23T09:44:01.591Z,8.45
2018-12-23T09:45:01.604Z,8.48
2018-12-23T09:46:01.624Z,8.56
2018-12-23T09:47:01.640Z,8.62
2018-12-23T09:48:01.653Z,8.52
2018-12-23T09:49:16.337Z,8.65
2018-12-23T09:50:01.683Z,8.63
2018-12-23T09:51:01.701Z,8.63
2018-12-23T09:52:01.721Z,8.59
2018-12-23T09:53:01.734Z,8.59
2018-12-23T09:54:01.753Z,8.58
2018-12-23T09:55:16.432Z,8.63
2018-12-23T09:56:01.789Z,8.68
2018-12-23T09:57:01.804Z,8.73
2018-12-23T09:58:01.823Z,8.74
2018-12-23T09:59:01.836Z,8.77
2018-12-23T10:00:01.859Z,8.86
2018-12-23T10:01:01.873Z,8.92
2018-12-23T10:02:01.887Z,8.96
2018-12-23T10:03:01.911Z,9.02
2018-12-23T10:04:01.918Z,8.98
2018-12-23T10:06:01.955Z,8.8
2018-12-23T10:07:02.071Z,8.84
2018-12-23T10:08:09.740Z,8.92
2018-12-23T10:09:02.007Z,8.86
2018-12-23T10:10:02.023Z,8.86
2018-12-23T10:11:02.039Z,8.87
2018-12-23T10:12:02.065Z,8.94
2018-12-23T10:13:02.173Z,8.79
2018-12-23T10:14:02.092Z,8.83
2018-12-23T10:15:16.773Z,8.83
2018-12-23T10:16:02.128Z,8.84
2018-12-23T10:17:02.146Z,8.79
2018-12-23T10:18:02.157Z,8.8
2018-12-23T10:19:02.175Z,8.74
2018-12-23T10:20:02.193Z,8.73
2018-12-23T10:21:02.215Z,8.65
2018-12-23T10:22:02.238Z,8.65
2018-12-23T10:23:02.245Z,8.7
2018-12-23T10:27:02.316Z,8.86
2018-12-23T10:29:02.344Z,8.92
2018-12-23T10:30:02.370Z,8.91
2018-12-23T10:31:17.043Z,9.04
2018-12-23T10:32:02.401Z,9.05
2018-12-23T10:33:02.417Z,9.05
2018-12-23T10:35:02.644Z,9.01
2018-12-23T10:36:02.466Z,8.96
2018-12-23T10:37:02.482Z,8.96
2018-12-23T10:38:02.501Z,9.02
2018-12-23T10:40:02.649Z,9.02
2018-12-23T10:41:17.217Z,9.01
2018-12-23T10:42:17.233Z,9.08
2018-12-23T10:43:03.838Z,9.11
2018-12-23T10:44:02.603Z,9.13
2018-12-23T10:45:02.634Z,9.08
2018-12-23T10:46:02.637Z,9.1
2018-12-23T10:47:17.317Z,9.11
2018-12-23T10:48:02.672Z,9.05
2018-12-23T10:49:02.697Z,9.04
2018-12-23T10:50:02.705Z,9.11
2018-12-23T10:51:02.723Z,8.96
2018-12-23T10:52:02.740Z,9.1
2018-12-23T10:53:02.757Z,9.1
2018-12-23T10:54:02.777Z,9.05
2018-12-23T10:55:02.800Z,9.01
2018-12-23T10:57:02.826Z,8.99
2018-12-23T10:58:02.843Z,9.01
2018-12-23T10:59:02.859Z,8.91
2018-12-23T11:00:17.541Z,8.96
2018-12-23T11:01:02.758Z,9.05
2018-12-23T11:02:02.915Z,9.05
2018-12-23T11:03:17.595Z,9.18
2018-12-23T11:05:03.066Z,9.17
2018-12-23T11:06:02.982Z,9.11
2018-12-23T11:07:03.000Z,9.14
2018-12-23T11:08:03.015Z,9.1
2018-12-23T11:09:03.929Z,9.1
2018-12-23T11:11:17.736Z,9.01
2018-12-23T11:12:03.092Z,9.13
2018-12-23T11:13:03.204Z,9.24
2018-12-23T11:14:03.119Z,9.17
2018-12-23T11:15:03.135Z,9.14
2018-12-23T11:16:03.156Z,9.28
2018-12-23T11:17:03.171Z,9.23
2018-12-23T11:18:17.851Z,9.15
2018-12-23T11:19:03.205Z,9.15
2018-12-23T11:20:03.220Z,9.23
2018-12-23T11:21:03.241Z,9.24
2018-12-23T11:22:03.260Z,9.28
2018-12-23T11:24:03.313Z,9.29
2018-12-23T11:25:03.407Z,9.23
2018-12-23T11:26:03.330Z,9.24
2018-12-23T11:27:03.343Z,9.26
2018-12-23T11:28:03.362Z,9.29
2018-12-23T11:29:03.232Z,9.36
2018-12-23T11:30:18.060Z,9.35
2018-12-23T11:31:03.416Z,9.39
2018-12-23T11:32:03.437Z,9.32
2018-12-23T11:33:03.448Z,9.46
2018-12-23T11:34:03.470Z,9.48
2018-12-23T11:35:03.482Z,9.47
2018-12-23T11:36:03.501Z,9.47
2018-12-23T11:37:03.518Z,9.48
2018-12-23T11:38:03.536Z,9.39
2018-12-23T11:39:03.559Z,9.35
2018-12-23T11:40:03.570Z,9.36
2018-12-23T11:41:03.587Z,9.33
2018-12-23T11:42:03.606Z,9.47
2018-12-23T11:43:03.627Z,9.43
2018-12-23T11:44:03.645Z,9.47
2018-12-23T11:45:03.662Z,9.4
2018-12-23T11:46:03.684Z,9.39
2018-12-23T11:47:18.356Z,9.42
2018-12-23T11:48:03.709Z,9.42
2018-12-23T11:49:03.735Z,9.46
2018-12-23T11:50:18.409Z,9.5
2018-12-23T11:51:03.767Z,9.38
2018-12-23T11:52:03.782Z,9.35
2018-12-23T11:53:03.798Z,9.32
2018-12-23T11:54:03.816Z,9.36
2018-12-23T11:55:03.836Z,9.4
2018-12-23T11:56:03.851Z,9.35
2018-12-23T11:57:03.871Z,9.29
2018-12-23T11:58:03.885Z,9.31
2018-12-23T12:00:03.930Z,9.31
2018-12-23T12:01:03.938Z,9.38
2018-12-23T12:02:03.955Z,9.29
2018-12-23T12:03:03.980Z,9.39
2018-12-23T12:04:18.652Z,9.42
2018-12-23T12:05:04.017Z,9.42
2018-12-23T12:06:18.691Z,9.33
2018-12-23T12:07:04.046Z,9.4
2018-12-23T12:08:04.059Z,9.39
2018-12-23T12:10:04.110Z,9.39
2018-12-23T12:11:04.114Z,9.35
2018-12-23T12:12:04.145Z,9.43
2018-12-23T12:13:04.148Z,9.35
2018-12-23T12:14:04.165Z,9.39
2018-12-23T12:15:04.181Z,9.33
2018-12-23T12:16:04.199Z,9.46
2018-12-23T12:17:18.883Z,9.4
2018-12-23T12:18:04.238Z,9.35
2018-12-23T12:19:18.916Z,9.39
2018-12-23T12:20:04.270Z,9.4
2018-12-23T12:21:04.288Z,9.38
2018-12-23T12:22:18.969Z,9.42
2018-12-23T12:23:04.322Z,9.35
2018-12-23T12:24:04.338Z,9.36
2018-12-23T12:26:04.375Z,9.43
2018-12-23T12:27:04.401Z,9.47
2018-12-23T12:28:04.410Z,9.47
2018-12-23T12:29:04.429Z,9.38
2018-12-23T12:30:04.562Z,9.39
2018-12-23T12:31:04.473Z,9.47
2018-12-23T12:33:19.163Z,9.38
2018-12-23T12:34:19.179Z,9.33
2018-12-23T12:35:04.535Z,9.33
2018-12-23T12:36:04.552Z,9.38
2018-12-23T12:37:04.574Z,9.29
2018-12-23T12:38:19.251Z,9.35
2018-12-23T12:39:04.607Z,9.26
2018-12-23T12:40:04.625Z,9.18
2018-12-23T12:42:04.666Z,9.02
2018-12-23T12:43:04.673Z,9.11
2018-12-23T12:44:04.687Z,9.2
2018-12-23T12:45:04.708Z,9.08
2018-12-23T12:46:05.516Z,9.1
2018-12-23T12:47:04.743Z,9.08
2018-12-23T12:48:04.767Z,9.08
2018-12-23T12:49:04.782Z,9.04
2018-12-23T12:50:04.914Z,9.08
2018-12-23T12:51:04.815Z,9.1
2018-12-23T12:52:04.837Z,9.13
2018-12-23T12:53:19.517Z,9.04
2018-12-23T12:54:04.866Z,8.91
2018-12-23T12:56:05.115Z,8.91
2018-12-23T12:57:04.922Z,8.87
2018-12-23T12:59:04.952Z,8.84
2018-12-23T13:00:04.967Z,8.84
2018-12-23T13:01:04.985Z,8.86
2018-12-23T13:02:05.010Z,8.87
2018-12-23T13:03:05.018Z,8.74
2018-12-23T13:04:19.701Z,8.65
2018-12-23T13:05:05.055Z,8.58
2018-12-23T13:06:05.071Z,8.48
2018-12-23T13:07:05.088Z,8.38
2018-12-23T13:09:05.379Z,8.3
2018-12-23T13:10:05.146Z,8.19
2018-12-23T13:11:05.162Z,8.23
2018-12-23T13:12:05.174Z,8.11
2018-12-23T13:13:05.189Z,7.98
2018-12-23T13:14:05.306Z,8.01
2018-12-23T13:15:05.223Z,7.98
2018-12-23T13:16:05.247Z,7.87
2018-12-23T13:17:05.255Z,7.9
2018-12-23T13:18:19.948Z,8.04
2018-12-23T13:19:05.288Z,7.97
2018-12-23T13:20:05.307Z,7.83
2018-12-23T13:21:05.323Z,7.86
2018-12-23T13:22:05.343Z,8
2018-12-23T13:23:05.360Z,7.89
2018-12-23T13:24:05.375Z,7.83
2018-12-23T13:25:20.059Z,7.86
2018-12-23T13:26:05.405Z,7.8
2018-12-23T13:27:05.425Z,7.86
2018-12-23T13:28:05.452Z,7.85
2018-12-23T13:29:05.460Z,7.85
2018-12-23T13:30:05.232Z,7.8
2018-12-23T13:31:05.499Z,7.85
2018-12-23T13:33:05.523Z,7.79
2018-12-23T13:34:05.548Z,7.82
2018-12-23T13:35:05.563Z,7.79
2018-12-23T13:37:05.686Z,7.79
2018-12-23T13:38:20.267Z,7.83
2018-12-23T13:39:13.710Z,7.85
2018-12-23T13:40:05.638Z,7.86
2018-12-23T13:41:20.317Z,7.85
2018-12-23T13:43:05.687Z,7.9
2018-12-23T13:44:05.705Z,8.07
2018-12-23T13:45:05.473Z,8.01
2018-12-23T13:46:05.763Z,8.01
2018-12-23T13:48:05.768Z,8.07
2018-12-23T13:49:05.794Z,8.02
2018-12-23T13:52:20.498Z,7.97
2018-12-23T13:53:20.514Z,7.98
2018-12-23T13:54:05.870Z,8.01
2018-12-23T13:55:05.902Z,8.07
2018-12-23T13:56:05.900Z,8.11
2018-12-23T13:57:20.580Z,8.19
2018-12-23T13:58:05.930Z,8.19
2018-12-23T13:59:05.959Z,8.19
2018-12-23T14:00:05.969Z,8.22
2018-12-23T14:01:05.982Z,8.28
2018-12-23T14:02:05.998Z,8.1
2018-12-23T14:03:06.019Z,8.18
2018-12-23T14:04:06.037Z,8.1
2018-12-23T14:05:06.052Z,8.11
2018-12-23T14:06:06.066Z,8.28
2018-12-23T14:07:06.179Z,8.16
2018-12-23T14:08:06.103Z,8.15
2018-12-23T14:09:06.119Z,8.2
2018-12-23T14:10:06.214Z,8.23
2018-12-23T14:11:06.148Z,8.23
2018-12-23T14:12:06.163Z,8.23
2018-12-23T14:13:20.843Z,8.2
2018-12-23T14:14:06.201Z,8.26
2018-12-23T14:15:06.295Z,8.26
2018-12-23T14:16:06.236Z,8.22
2018-12-23T14:17:06.252Z,8.3
2018-12-23T14:18:06.269Z,8.4